Terminal Aerodrome Forecast
Issued by NWS St Louis, MO

Home | Current Version | Previous Version | Text Only | Print | Product List | Glossary On
Versions: 1 2 3 4 5 6 7 8 9 10 11 12 13 14 15 16 17 18 19 20 21 22 23 24 25 26
039
FTUS43 KLSX 242059 AAA
TAFSTL
TAF AMD
KSTL 242059Z 2421/2524 25008KT P6SM SCT040 SCT250
     FM250200 22005KT P6SM SCT050 BKN120
     FM251300 35008KT P6SM VCTS SCT050CB BKN100
     FM251600 04006KT P6SM SCT050 BKN120=

USA.gov is the U.S. government's official web portal to all federal, state and local government web resources and services.